createdAt,value
2018-08-14T00:00:24.812Z,17.50
2018-08-14T00:02:53.513Z,17.50
2018-08-14T00:05:22.269Z,17.50
2018-08-14T00:07:51.005Z,17.50
2018-08-14T00:10:19.689Z,17.50
2018-08-14T00:12:48.381Z,17.40
2018-08-14T00:15:17.125Z,17.40
2018-08-14T00:17:47.899Z,17.40
2018-08-14T00:20:19.407Z,17.40
2018-08-14T00:22:48.477Z,17.40
2018-08-14T00:25:17.225Z,17.40
2018-08-14T00:27:46.162Z,17.50
2018-08-14T00:30:22.174Z,17.50
2018-08-14T00:32:50.793Z,17.50
2018-08-14T00:35:19.489Z,17.50
2018-08-14T00:37:48.172Z,17.50
2018-08-14T00:40:19.439Z,17.60
2018-08-14T00:42:50.296Z,17.50
2018-08-14T00:45:20.160Z,17.60
2018-08-14T00:47:49.193Z,17.60
2018-08-14T00:50:18.080Z,17.60
2018-08-14T00:52:47.067Z,17.60
2018-08-14T00:55:16.944Z,17.60
2018-08-14T00:57:45.892Z,17.60
2018-08-14T01:00:20.236Z,17.60
2018-08-14T01:02:49.756Z,17.60
2018-08-14T01:05:18.929Z,17.60
2018-08-14T01:07:47.912Z,17.60
2018-08-14T01:10:16.610Z,17.60
2018-08-14T01:12:47.988Z,17.60
2018-08-14T01:15:18.211Z,17.60
2018-08-14T01:17:49.045Z,17.60
2018-08-14T01:20:18.101Z,17.60
2018-08-14T01:22:47.293Z,17.50
2018-08-14T01:25:16.758Z,17.50
2018-08-14T01:27:46.053Z,17.50
2018-08-14T01:30:21.578Z,17.40
2018-08-14T01:32:50.275Z,17.40
2018-08-14T01:35:19.189Z,17.30
2018-08-14T01:37:48.117Z,17.20
2018-08-14T01:40:16.758Z,17.20
2018-08-14T01:42:45.476Z,17.20
2018-08-14T01:45:15.613Z,17.20
2018-08-14T01:47:44.669Z,17.20
2018-08-14T01:50:18.033Z,17.20
2018-08-14T01:52:46.996Z,17.20
2018-08-14T01:55:15.732Z,17.20
2018-08-14T01:57:44.802Z,17.20
2018-08-14T02:00:13.685Z,17.20
2018-08-14T02:02:42.421Z,17.20
2018-08-14T02:05:11.669Z,17.20
2018-08-14T02:07:40.636Z,17.20
2018-08-14T02:10:11.479Z,17.20
2018-08-14T02:12:40.127Z,17.20
2018-08-14T02:15:11.869Z,17.20
2018-08-14T02:17:40.557Z,17.30
2018-08-14T02:20:11.817Z,17.30
2018-08-14T02:22:40.490Z,17.30
2018-08-14T02:25:09.180Z,17.30
2018-08-14T02:27:37.839Z,17.30
2018-08-14T02:30:07.252Z,17.30
2018-08-14T02:32:36.317Z,17.30
2018-08-14T02:35:06.127Z,17.30
2018-08-14T02:37:34.826Z,17.30
2018-08-14T02:40:03.479Z,17.30
2018-08-14T02:42:32.141Z,17.30
2018-08-14T02:45:00.801Z,17.30
2018-08-14T02:47:29.491Z,17.40
2018-08-14T02:49:58.093Z,17.50
2018-08-14T02:52:26.786Z,17.50
2018-08-14T02:54:55.385Z,17.50
2018-08-14T02:57:24.066Z,17.50
2018-08-14T02:59:52.721Z,17.50
2018-08-14T03:02:21.337Z,17.50
2018-08-14T03:04:50.017Z,17.50
2018-08-14T03:07:18.634Z,17.50
2018-08-14T03:09:47.313Z,17.50
2018-08-14T03:12:15.932Z,17.60
2018-08-14T03:14:58.384Z,17.60
2018-08-14T03:17:28.170Z,17.60
2018-08-14T03:19:56.838Z,17.60
2018-08-14T03:22:26.143Z,17.60
2018-08-14T03:24:55.154Z,17.60
2018-08-14T03:27:24.149Z,17.60
2018-08-14T03:29:52.761Z,17.70
2018-08-14T03:32:21.504Z,17.70
2018-08-14T03:34:50.132Z,17.70
2018-08-14T03:37:18.839Z,17.70
2018-08-14T03:39:47.445Z,17.70
2018-08-14T03:42:16.404Z,17.70
2018-08-14T03:44:45.065Z,17.70
2018-08-14T03:47:13.796Z,17.70
2018-08-14T03:49:42.633Z,17.70
2018-08-14T03:52:11.297Z,17.70
2018-08-14T03:54:40.000Z,17.80
2018-08-14T03:57:08.618Z,17.80
2018-08-14T03:59:37.322Z,17.80
2018-08-14T04:02:06.085Z,17.80
2018-08-14T04:04:35.219Z,17.80
2018-08-14T04:07:03.884Z,17.80
2018-08-14T04:09:32.548Z,17.80
2018-08-14T04:12:02.069Z,17.80
2018-08-14T04:14:30.736Z,17.80
2018-08-14T04:16:59.372Z,17.80
2018-08-14T04:19:28.045Z,17.80
2018-08-14T04:21:56.655Z,17.80
2018-08-14T04:24:25.302Z,17.80
2018-08-14T04:26:53.921Z,17.90
2018-08-14T04:29:22.588Z,17.90
2018-08-14T04:31:51.223Z,17.90
2018-08-14T04:34:19.869Z,17.80
2018-08-14T04:36:48.497Z,17.90
2018-08-14T04:39:17.102Z,17.90
2018-08-14T04:41:45.809Z,17.90
2018-08-14T04:44:14.429Z,17.90
2018-08-14T04:46:43.070Z,17.90
2018-08-14T04:49:12.069Z,18.00
2018-08-14T04:51:40.768Z,18.00
2018-08-14T04:54:09.329Z,18.00
2018-08-14T04:56:37.986Z,18.00
2018-08-14T04:59:06.638Z,18.00
2018-08-14T05:01:35.319Z,18.00
2018-08-14T05:04:04.010Z,18.00
2018-08-14T05:06:32.641Z,18.00
2018-08-14T05:09:01.526Z,18.00
2018-08-14T05:11:30.162Z,18.00
2018-08-14T05:13:58.812Z,18.00
2018-08-14T05:16:27.438Z,18.00
2018-08-14T05:18:56.414Z,18.00
2018-08-14T05:21:25.023Z,18.10
2018-08-14T05:23:53.653Z,18.10
2018-08-14T05:26:22.277Z,18.20
2018-08-14T05:28:50.933Z,18.30
2018-08-14T05:31:19.668Z,18.40
2018-08-14T05:33:48.663Z,18.60
2018-08-14T05:36:17.517Z,18.60
2018-08-14T05:38:46.446Z,18.60
2018-08-14T05:41:15.057Z,18.60
2018-08-14T05:43:43.875Z,18.60
2018-08-14T05:46:12.569Z,18.60
2018-08-14T05:48:41.199Z,18.60
2018-08-14T05:51:09.814Z,18.50
2018-08-14T05:53:38.502Z,18.50
2018-08-14T05:56:07.129Z,18.50
2018-08-14T05:58:35.801Z,18.50
2018-08-14T06:01:04.543Z,18.50
2018-08-14T06:03:33.204Z,18.60
2018-08-14T06:06:01.823Z,18.70
2018-08-14T06:08:30.501Z,18.70
2018-08-14T06:10:59.136Z,18.80
2018-08-14T06:13:27.837Z,18.80
2018-08-14T06:15:56.429Z,18.80
2018-08-14T06:18:25.085Z,18.70
2018-08-14T06:20:53.742Z,18.70
2018-08-14T06:23:22.467Z,18.80
2018-08-14T06:25:51.046Z,18.80
2018-08-14T06:28:19.706Z,18.80
2018-08-14T06:30:48.389Z,18.80
2018-08-14T06:33:17.061Z,18.90
2018-08-14T06:35:46.100Z,18.80
2018-08-14T06:38:14.756Z,18.70
2018-08-14T06:40:43.457Z,18.60
2018-08-14T06:43:12.153Z,18.30
2018-08-14T06:45:40.821Z,18.30
2018-08-14T06:48:09.429Z,18.20
2018-08-14T06:50:38.078Z,18.20
2018-08-14T06:53:06.769Z,18.20
2018-08-14T06:55:35.465Z,18.20
2018-08-14T06:58:04.189Z,18.20
2018-08-14T07:00:33.640Z,18.20
2018-08-14T07:03:02.364Z,18.20
2018-08-14T07:05:31.070Z,18.20
2018-08-14T07:07:59.709Z,18.20
2018-08-14T07:10:28.441Z,18.20
2018-08-14T07:12:57.106Z,18.30
2018-08-14T07:15:25.837Z,18.30
2018-08-14T07:17:54.526Z,18.30
2018-08-14T07:20:23.176Z,18.40
2018-08-14T07:22:51.817Z,18.50
2018-08-14T07:25:21.454Z,18.50
2018-08-14T07:27:50.561Z,18.60
2018-08-14T07:30:24.353Z,18.60
2018-08-14T07:32:53.061Z,18.70
2018-08-14T07:35:21.725Z,18.80
2018-08-14T07:37:50.446Z,19.10
2018-08-14T07:40:19.093Z,19.60
2018-08-14T07:42:47.806Z,19.60
2018-08-14T07:45:17.434Z,19.80
2018-08-14T07:47:46.191Z,19.80
2018-08-14T07:50:15.182Z,19.80
2018-08-14T07:52:44.825Z,19.80
2018-08-14T07:55:13.857Z,20.20
2018-08-14T07:57:43.249Z,20.60
2018-08-14T08:00:15.289Z,20.70
2018-08-14T08:02:46.559Z,20.60
2018-08-14T08:05:16.337Z,20.80
2018-08-14T08:07:45.029Z,20.50
2018-08-14T08:10:15.087Z,20.10
2018-08-14T08:12:48.076Z,19.90
2018-08-14T08:15:17.841Z,19.60
2018-08-14T08:17:47.402Z,19.50
2018-08-14T08:20:31.348Z,19.60
2018-08-14T08:23:00.528Z,19.50
2018-08-14T08:25:30.237Z,19.40
2018-08-14T08:27:59.714Z,19.50
2018-08-14T08:30:28.457Z,19.50
2018-08-14T08:32:58.314Z,19.50
2018-08-14T08:35:33.505Z,19.50
2018-08-14T08:38:02.217Z,19.70
2018-08-14T08:40:30.893Z,19.80
2018-08-14T08:42:59.579Z,20.00
2018-08-14T08:45:28.324Z,20.00
2018-08-14T08:48:07.911Z,19.90
2018-08-14T08:50:36.498Z,19.70
2018-08-14T08:53:05.433Z,19.60
2018-08-14T08:55:34.180Z,19.60
2018-08-14T08:58:02.931Z,19.70
2018-08-14T09:00:31.730Z,19.80
2018-08-14T09:03:00.468Z,19.80
2018-08-14T09:05:29.197Z,19.80
2018-08-14T09:07:58.034Z,20.00
2018-08-14T09:10:27.111Z,20.10
2018-08-14T09:12:55.898Z,20.10
2018-08-14T09:15:24.677Z,20.00
2018-08-14T09:17:53.278Z,19.70
2018-08-14T09:20:22.061Z,19.50
2018-08-14T09:22:50.753Z,19.40
2018-08-14T09:25:19.492Z,19.20
2018-08-14T09:27:48.121Z,19.10
2018-08-14T09:30:17.578Z,19.20
2018-08-14T09:32:46.313Z,19.30
2018-08-14T09:35:17.085Z,19.40
2018-08-14T09:37:45.884Z,19.50
2018-08-14T09:40:16.683Z,19.40
2018-08-14T09:42:45.650Z,19.50
2018-08-14T09:45:14.341Z,19.60
2018-08-14T09:47:43.232Z,19.80
2018-08-14T09:50:27.690Z,20.00
2018-08-14T09:52:56.399Z,20.30
2018-08-14T09:55:25.087Z,20.60
2018-08-14T09:57:54.219Z,21.00
2018-08-14T10:00:30.135Z,21.70
2018-08-14T10:03:04.352Z,22.60
2018-08-14T10:05:39.238Z,23.30
2018-08-14T10:08:11.266Z,23.70
2018-08-14T10:10:39.890Z,23.60
2018-08-14T10:13:10.128Z,24.40
2018-08-14T10:15:38.948Z,25.70
2018-08-14T10:18:09.445Z,26.00
2018-08-14T10:20:38.096Z,26.00
2018-08-14T10:23:06.894Z,25.20
2018-08-14T10:25:35.534Z,24.40
2018-08-14T10:28:04.289Z,23.70
2018-08-14T10:30:32.978Z,23.30
2018-08-14T10:33:01.681Z,23.20
2018-08-14T10:35:30.422Z,23.40
2018-08-14T10:37:59.196Z,23.40
2018-08-14T10:40:27.917Z,23.40
2018-08-14T10:42:56.676Z,23.10
2018-08-14T10:45:25.385Z,23.00
2018-08-14T10:47:54.046Z,23.10
2018-08-14T10:50:27.252Z,23.30
2018-08-14T10:52:56.806Z,23.10
2018-08-14T10:55:25.477Z,22.80
2018-08-14T10:57:54.160Z,22.60
2018-08-14T11:00:24.825Z,22.50
2018-08-14T11:02:53.920Z,22.60
2018-08-14T11:05:23.309Z,22.80
2018-08-14T11:07:52.536Z,23.00
2018-08-14T11:10:24.801Z,23.00
2018-08-14T11:12:53.957Z,22.90
2018-08-14T11:15:22.695Z,23.00
2018-08-14T11:17:51.348Z,23.30
2018-08-14T11:20:25.688Z,23.10
2018-08-14T11:22:54.363Z,22.80
2018-08-14T11:25:23.181Z,22.30
2018-08-14T11:27:51.911Z,22.30
2018-08-14T11:30:22.922Z,23.00
2018-08-14T11:32:52.309Z,23.90
2018-08-14T11:35:21.769Z,24.40
2018-08-14T11:37:50.473Z,24.70
2018-08-14T11:40:19.085Z,24.60
2018-08-14T11:42:47.777Z,24.00
2018-08-14T11:45:22.697Z,23.30
2018-08-14T11:47:51.418Z,23.00
2018-08-14T11:50:20.830Z,22.80
2018-08-14T11:52:51.398Z,22.50
2018-08-14T11:55:20.884Z,22.30
2018-08-14T11:57:50.430Z,22.70
2018-08-14T12:00:20.952Z,23.40
2018-08-14T12:02:50.102Z,24.10
2018-08-14T12:05:18.843Z,24.50
2018-08-14T12:07:47.468Z,24.50
2018-08-14T12:10:17.051Z,24.40
2018-08-14T12:12:45.750Z,24.70
2018-08-14T12:15:15.401Z,25.20
2018-08-14T12:17:45.254Z,25.30
2018-08-14T12:20:15.456Z,25.00
2018-08-14T12:22:44.125Z,24.90
2018-08-14T12:25:14.283Z,25.00
2018-08-14T12:27:42.973Z,25.30
2018-08-14T12:30:15.924Z,25.40
2018-08-14T12:32:44.580Z,25.80
2018-08-14T12:35:13.266Z,25.80
2018-08-14T12:37:42.014Z,25.40
2018-08-14T12:40:11.608Z,25.00
2018-08-14T12:42:40.349Z,24.40
2018-08-14T12:45:15.437Z,24.20
2018-08-14T12:47:44.202Z,24.00
2018-08-14T12:50:14.219Z,24.10
2018-08-14T12:52:42.857Z,24.10
2018-08-14T12:55:12.537Z,24.00
2018-08-14T12:57:41.490Z,23.80
2018-08-14T13:00:13.555Z,23.60
2018-08-14T13:02:42.186Z,23.40
2018-08-14T13:05:10.925Z,23.30
2018-08-14T13:07:39.577Z,23.50
2018-08-14T13:10:09.846Z,24.00
2018-08-14T13:12:38.585Z,24.40
2018-08-14T13:15:09.682Z,24.60
2018-08-14T13:17:38.277Z,24.70
2018-08-14T13:20:08.682Z,24.90
2018-08-14T13:22:37.341Z,25.00
2018-08-14T13:25:08.088Z,25.40
2018-08-14T13:27:36.848Z,25.70
2018-08-14T13:30:07.885Z,25.40
2018-08-14T13:32:36.569Z,25.30
2018-08-14T13:35:05.373Z,25.00
2018-08-14T13:37:34.826Z,24.80
2018-08-14T13:40:10.728Z,24.60
2018-08-14T13:42:39.901Z,24.20
2018-08-14T13:45:10.825Z,24.20
2018-08-14T13:47:39.749Z,24.40
2018-08-14T13:50:09.982Z,24.70
2018-08-14T13:52:39.032Z,24.90
2018-08-14T13:55:10.045Z,24.90
2018-08-14T13:57:38.730Z,24.70
2018-08-14T14:00:09.909Z,24.60
2018-08-14T14:02:39.064Z,24.50
2018-08-14T14:05:07.758Z,24.20
2018-08-14T14:07:36.769Z,24.10
2018-08-14T14:10:07.617Z,24.10
2018-08-14T14:12:36.357Z,24.30
2018-08-14T14:15:08.558Z,24.60
2018-08-14T14:17:37.175Z,25.20
2018-08-14T14:20:05.854Z,25.70
2018-08-14T14:22:34.585Z,25.80
2018-08-14T14:25:03.246Z,25.70
2018-08-14T14:27:31.902Z,25.60
2018-08-14T14:30:00.565Z,25.20
2018-08-14T14:32:29.307Z,24.50
2018-08-14T14:34:58.217Z,23.90
2018-08-14T14:37:27.060Z,23.50
2018-08-14T14:39:55.617Z,23.30
2018-08-14T14:42:24.313Z,22.90
2018-08-14T14:44:53.001Z,22.70
2018-08-14T14:47:21.681Z,22.50
2018-08-14T14:49:50.363Z,22.40
2018-08-14T14:52:18.993Z,22.40
2018-08-14T14:54:47.680Z,22.40
2018-08-14T14:57:16.368Z,22.70
2018-08-14T14:59:45.007Z,22.80
2018-08-14T15:02:13.650Z,22.90
2018-08-14T15:04:42.300Z,22.90
2018-08-14T15:07:10.905Z,22.90
2018-08-14T15:09:39.517Z,22.80
2018-08-14T15:12:08.113Z,22.70
2018-08-14T15:14:36.753Z,22.70
2018-08-14T15:17:05.418Z,22.90
2018-08-14T15:19:34.065Z,23.00
2018-08-14T15:22:02.681Z,23.00
2018-08-14T15:24:31.336Z,23.10
2018-08-14T15:26:59.977Z,23.00
2018-08-14T15:29:28.600Z,23.10
2018-08-14T15:32:01.896Z,23.10
2018-08-14T15:34:31.917Z,22.90
2018-08-14T15:37:02.524Z,22.90
2018-08-14T15:39:31.189Z,22.90
2018-08-14T15:42:01.384Z,22.70
2018-08-14T15:44:30.065Z,22.80
2018-08-14T15:46:58.752Z,22.70
2018-08-14T15:49:27.550Z,22.70
2018-08-14T15:51:56.101Z,22.70
2018-08-14T15:54:24.754Z,22.70
2018-08-14T15:56:53.434Z,22.80
2018-08-14T15:59:22.161Z,22.70
2018-08-14T16:01:50.866Z,22.60
2018-08-14T16:04:20.169Z,22.50
2018-08-14T16:06:48.904Z,22.70
2018-08-14T16:09:20.768Z,22.80
2018-08-14T16:11:49.992Z,23.00
2018-08-14T16:14:18.683Z,23.50
2018-08-14T16:16:47.505Z,23.50
2018-08-14T16:19:16.983Z,23.40
2018-08-14T16:21:45.733Z,23.20
2018-08-14T16:24:16.080Z,23.00
2018-08-14T16:26:44.727Z,23.00
2018-08-14T16:29:13.449Z,22.80
2018-08-14T16:31:42.291Z,22.80
2018-08-14T16:34:10.936Z,22.60
2018-08-14T16:36:40.177Z,22.60
2018-08-14T16:39:11.173Z,22.50
2018-08-14T16:41:40.021Z,22.50
2018-08-14T16:44:08.717Z,22.50
2018-08-14T16:46:37.458Z,22.40
2018-08-14T16:49:06.218Z,22.30
2018-08-14T16:51:35.061Z,22.30
2018-08-14T16:54:03.857Z,22.20
2018-08-14T16:56:32.466Z,22.10
2018-08-14T16:59:01.125Z,21.90
2018-08-14T17:01:29.777Z,21.50
2018-08-14T17:03:58.492Z,21.40
2018-08-14T17:06:27.115Z,21.10
2018-08-14T17:08:55.733Z,21.00
2018-08-14T17:11:24.403Z,20.80
2018-08-14T17:13:53.055Z,20.70
2018-08-14T17:16:21.674Z,20.50
2018-08-14T17:18:50.361Z,20.40
2018-08-14T17:21:17.725Z,20.30
2018-08-14T17:23:46.353Z,20.20
2018-08-14T17:26:15.001Z,20.10
2018-08-14T17:28:43.617Z,20.00
2018-08-14T17:31:12.382Z,20.00
2018-08-14T17:33:41.030Z,19.90
2018-08-14T17:36:09.695Z,20.00
2018-08-14T17:38:38.476Z,19.90
2018-08-14T17:41:07.133Z,20.00
2018-08-14T17:43:35.852Z,20.00
2018-08-14T17:46:04.526Z,20.00
2018-08-14T17:48:33.157Z,20.10
2018-08-14T17:51:01.812Z,20.20
2018-08-14T17:53:30.425Z,20.20
2018-08-14T17:55:59.140Z,20.30
2018-08-14T17:58:27.853Z,20.40
2018-08-14T18:00:56.416Z,20.60
2018-08-14T18:03:25.016Z,20.70
2018-08-14T18:05:53.677Z,20.90
2018-08-14T18:08:22.296Z,21.00
2018-08-14T18:10:50.921Z,20.90
2018-08-14T18:13:19.604Z,20.90
2018-08-14T18:15:48.321Z,20.80
2018-08-14T18:18:17.050Z,20.80
2018-08-14T18:20:45.723Z,20.70
2018-08-14T18:23:14.358Z,20.70
2018-08-14T18:25:42.991Z,20.60
2018-08-14T18:28:11.595Z,20.60
2018-08-14T18:30:40.258Z,20.50
2018-08-14T18:33:08.993Z,20.40
2018-08-14T18:35:37.625Z,20.30
2018-08-14T18:38:07.505Z,20.20
2018-08-14T18:40:36.197Z,20.10
2018-08-14T18:43:04.888Z,20.10
2018-08-14T18:45:33.652Z,20.10
2018-08-14T18:48:02.350Z,20.10
2018-08-14T18:50:30.953Z,20.10
2018-08-14T18:52:59.642Z,20.10
2018-08-14T18:55:28.404Z,20.10
2018-08-14T18:57:57.089Z,20.10
2018-08-14T19:00:26.529Z,20.10
2018-08-14T19:02:56.407Z,20.10
2018-08-14T19:05:25.132Z,20.10
2018-08-14T19:07:53.824Z,20.10
2018-08-14T19:10:24.020Z,20.10
2018-08-14T19:12:53.588Z,20.10
2018-08-14T19:15:25.563Z,20.10
2018-08-14T19:17:54.185Z,20.10
2018-08-14T19:20:22.857Z,20.10
2018-08-14T19:22:51.509Z,20.10
2018-08-14T19:25:20.205Z,20.00
2018-08-14T19:27:48.892Z,20.00
2018-08-14T19:30:17.609Z,20.00
2018-08-14T19:32:46.201Z,20.10
2018-08-14T19:35:15.932Z,20.10
2018-08-14T19:37:44.732Z,20.10
2018-08-14T19:40:17.372Z,20.10
2018-08-14T19:42:46.816Z,20.10
2018-08-14T19:45:15.561Z,20.20
2018-08-14T19:47:44.699Z,20.20
2018-08-14T19:50:14.715Z,20.10
2018-08-14T19:52:43.330Z,20.20
2018-08-14T19:55:13.589Z,20.10
2018-08-14T19:57:43.817Z,20.10
2018-08-14T20:00:16.501Z,20.10
2018-08-14T20:02:45.181Z,20.10
2018-08-14T20:05:15.013Z,20.10
2018-08-14T20:07:43.718Z,20.00
2018-08-14T20:10:13.194Z,20.00
2018-08-14T20:12:42.290Z,19.90
2018-08-14T20:15:15.406Z,19.90
2018-08-14T20:17:44.139Z,19.80
2018-08-14T20:20:18.946Z,19.80
2018-08-14T20:22:47.558Z,19.80
2018-08-14T20:25:16.365Z,19.80
2018-08-14T20:27:45.046Z,19.70
2018-08-14T20:30:15.776Z,19.70
2018-08-14T20:32:44.503Z,19.70
2018-08-14T20:35:15.208Z,19.70
2018-08-14T20:37:44.963Z,19.70
2018-08-14T20:40:16.493Z,19.70
2018-08-14T20:42:45.301Z,19.60
2018-08-14T20:45:14.460Z,19.60
2018-08-14T20:47:43.622Z,19.60
2018-08-14T20:50:17.261Z,19.50
2018-08-14T20:52:46.355Z,19.50
2018-08-14T20:55:15.642Z,19.50
2018-08-14T20:57:44.989Z,19.50
2018-08-14T21:00:20.291Z,19.50
2018-08-14T21:02:49.693Z,19.50
2018-08-14T21:05:19.050Z,19.50
2018-08-14T21:07:48.148Z,19.50
2018-08-14T21:10:17.519Z,19.50
2018-08-14T21:12:46.354Z,19.50
2018-08-14T21:15:17.269Z,19.50
2018-08-14T21:17:46.842Z,19.50
2018-08-14T21:20:18.405Z,19.50
2018-08-14T21:22:47.696Z,19.50
2018-08-14T21:25:16.832Z,19.50
2018-08-14T21:27:45.536Z,19.50
2018-08-14T21:30:15.640Z,19.50
2018-08-14T21:32:44.452Z,19.40
2018-08-14T21:35:14.697Z,19.40
2018-08-14T21:37:43.395Z,19.40
2018-08-14T21:40:17.421Z,19.40
2018-08-14T21:42:47.976Z,19.40
2018-08-14T21:45:18.210Z,19.40
2018-08-14T21:47:47.004Z,19.40
2018-08-14T21:50:15.749Z,19.40
2018-08-14T21:52:44.428Z,19.40
2018-08-14T21:55:14.133Z,19.20
2018-08-14T21:57:43.910Z,19.20
2018-08-14T22:00:20.658Z,19.00
2018-08-14T22:02:49.617Z,18.90
2018-08-14T22:05:18.359Z,18.90
2018-08-14T22:07:47.532Z,18.90
2018-08-14T22:10:18.506Z,18.90
2018-08-14T22:12:47.180Z,18.90
2018-08-14T22:15:15.980Z,19.00
2018-08-14T22:17:44.593Z,19.00
2018-08-14T22:20:14.716Z,19.10
2018-08-14T22:22:44.685Z,19.10
2018-08-14T22:25:13.397Z,19.10
2018-08-14T22:27:42.026Z,19.10
2018-08-14T22:30:12.821Z,19.10
2018-08-14T22:32:41.484Z,19.10
2018-08-14T22:35:10.161Z,19.10
2018-08-14T22:37:39.087Z,19.10
2018-08-14T22:40:07.857Z,19.10
2018-08-14T22:42:36.815Z,19.00
2018-08-14T22:45:06.892Z,19.00
2018-08-14T22:47:35.624Z,19.00
2018-08-14T22:50:04.857Z,19.00
2018-08-14T22:52:33.561Z,18.90
2018-08-14T22:55:02.269Z,18.90
2018-08-14T22:57:30.901Z,18.90
2018-08-14T23:00:00.275Z,18.90
2018-08-14T23:02:29.293Z,18.90
2018-08-14T23:04:58.050Z,18.90
2018-08-14T23:07:26.729Z,18.80
2018-08-14T23:09:55.321Z,18.80
2018-08-14T23:12:24.093Z,18.70
2018-08-14T23:14:52.702Z,18.70
2018-08-14T23:17:21.362Z,18.60
2018-08-14T23:19:50.080Z,18.50
2018-08-14T23:22:19.008Z,18.40
2018-08-14T23:24:47.712Z,18.30
2018-08-14T23:27:16.492Z,18.30
2018-08-14T23:29:45.069Z,18.20
2018-08-14T23:32:13.893Z,18.20
2018-08-14T23:34:42.548Z,18.20
2018-08-14T23:37:11.494Z,18.20
2018-08-14T23:39:40.073Z,18.30
2018-08-14T23:42:08.950Z,18.30
2018-08-14T23:44:37.616Z,18.30
2018-08-14T23:47:06.354Z,18.30
2018-08-14T23:49:35.013Z,18.20
2018-08-14T23:52:03.690Z,18.20
2018-08-14T23:54:32.337Z,18.20
2018-08-14T23:57:00.968Z,18.30
2018-08-14T23:59:29.571Z,18.30
